Friday, April 29, 2016, 9:24 PM EDT

KRDG, Reading Regional Airport

Location: Reading, PA, United States Lat: 40.367
Local Time: 9:24 PM EDT ( 1:24 GMT) Lon: -75.967
Time Zone: US/Eastern Elev: 344 ft

Show me the last for .
Show Decoded

2016-04-29 20:54 METAR KRDG 300054Z 06004KT 10SM OVC020 09/04 A3010 RMK AO2 SLP199 T00890044 =
2016-04-29 19:54 METAR KRDG 292354Z 13004KT 10SM OVC020 09/04 A3008 RMK AO2 SLP191 T00940044
                 10111 20094 53007 =
2016-04-29 18:54 METAR KRDG 292254Z 00000KT 10SM OVC024 10/04 A3005 RMK AO2 SLP183 T01000044 =
2016-04-29 17:54 METAR KRDG 292154Z 12006KT 10SM OVC028 11/04 A3004 RMK AO2 SLP179 T01060039 =
2016-04-29 16:54 METAR KRDG 292054Z 07004KT 10SM OVC026 11/04 A3005 RMK AO2 SLP183 T01060039
                 50000 =
2016-04-29 15:54 METAR KRDG 291954Z VRB04KT 10SM OVC025 11/04 A3005 RMK AO2 SLP183 T01060044 =
2016-04-29 14:54 METAR KRDG 291854Z 12003KT 10SM OVC029 11/04 A3006 RMK AO2 SLP187 T01110039 =
2016-04-29 13:54 METAR KRDG 291754Z 17005KT 10SM OVC029 11/04 A3005 RMK AO2 RAE06 SLP183 P0000
                 60001 T01110044 10111 20078 56009 =
2016-04-29 12:54 METAR KRDG 291654Z 09007KT 10SM -RA BKN027 10/05 A3006 RMK AO2 RAB37 SLP184
                 P0001 T01000050 =
2016-04-29 12:21 METAR KRDG 291621Z 13007KT 10SM BKN029 OVC037 11/04 A3007 RMK AO2 T01060039 =
2016-04-29 11:54 METAR KRDG 291554Z 15008KT 10SM OVC038 11/03 A3008 RMK AO2 SLP192 T01060033 =
2016-04-29 10:54 METAR KRDG 291454Z 07007KT 10SM OVC035 10/03 A3008 RMK AO2 SLP193 T01000028
                 51006 =
2016-04-29 10:32 METAR KRDG 291432Z VRB03KT 10SM OVC031 09/03 A3008 RMK AO2 T00940028 =
2016-04-29 09:54 METAR KRDG 291354Z VRB05KT 10SM OVC028 09/03 A3007 RMK AO2 SLP188 T00890033 =
2016-04-29 08:54 METAR KRDG 291254Z 11005KT 10SM OVC028 08/03 A3008 RMK AO2 SLP192 T00830033 =
2016-04-29 07:54 METAR KRDG 291154Z 08003KT 10SM BKN023 OVC028 08/04 A3007 RMK AO2 SLP187 60000
                 70027 T00780039 10078 20067 51012 =
2016-04-29 06:54 METAR KRDG 291054Z 00000KT 10SM OVC027 08/04 A3006 RMK AO2 SLP185 T00780039 =
2016-04-29 06:01 METAR KRDG 291001Z 00000KT 10SM OVC029 07/05 A3005 RMK AO2 T00720050 =
2016-04-29 05:54 METAR KRDG 290954Z 00000KT 10SM OVC030 07/04 A3005 RMK AO2 RAB18E32 SLP182 P0000
                 T00720044 =
2016-04-29 05:45 METAR KRDG 290945Z 00000KT 10SM OVC030 07/04 A3005 RMK AO2 RAB18E32 P0000
                 T00720044 =
2016-04-29 04:54 METAR KRDG 290854Z VRB03KT 10SM OVC028 07/04 A3003 RMK AO2 RAB20E32 SLP175 P0000
                 60000 T00720039 53000 =
2016-04-29 03:54 METAR KRDG 290754Z 06003KT 10SM OVC023 07/05 A3002 RMK AO2 SLP173 T00670050 =
2016-04-29 02:54 METAR KRDG 290654Z 09004KT 10SM OVC018 07/04 A3002 RMK AO2 RAB15E36 SLP172 P0000
                 T00670044 =
2016-04-29 02:12 METAR KRDG 290612Z 09005KT 10SM OVC015 07/04 A3002 RMK AO2 T00670044 =
2016-04-29 01:54 METAR KRDG 290554Z 08004KT 10SM OVC014 07/04 A3003 RMK AO2 SLP174 60001
                 T00670044 10072 20067 58004 =
2016-04-29 01:36 METAR KRDG 290536Z 06003KT 10SM BKN012 OVC018 07/05 A3003 RMK AO2 T00670050 =
2016-04-29 00:54 METAR KRDG 290454Z 06004KT 10SM SCT014 OVC019 07/05 A3003 RMK AO2 SLP176
                 T00670050 401220067 =
2016-04-29 00:05 METAR KRDG 290405Z 06003KT 10SM BKN012 OVC026 07/05 A3004 RMK AO2 T00670050 =
2016-04-28 23:54 METAR KRDG 290354Z 00000KT 10SM SCT012 BKN022 OVC028 07/05 A3004 RMK AO2 SLP178
                 T00670050 =
2016-04-28 23:16 METAR KRDG 290316Z 07004KT 10SM SCT009 SCT013 OVC029 07/05 A3004 RMK AO2
                 T00670050 =
2016-04-28 22:54 METAR KRDG 290254Z 00000KT 10SM OVC010 07/05 A3004 RMK AO2 CIG 008V012 SLP179
                 60001 T00720050 50001 =
2016-04-28 22:40 METAR KRDG 290240Z 00000KT 10SM BKN010 OVC029 07/06 A3004 RMK AO2 CIG 008V012
                 T00720056 =
2016-04-28 22:25 METAR KRDG 290225Z 08004KT 10SM BR SCT010 SCT016 OVC028 07/05 A3004 RMK AO2
                 T00720050 =
2016-04-28 21:54 METAR KRDG 290154Z 14004KT 6SM BR BKN007 OVC011 07/05 A3004 RMK AO2 SLP180
                 T00670050 =

Support USWX by starting your Amazon purchase here.